Time;durP1;ratioP1;P1;durP2;ratioP2;P2;SDS_P1;SDS_P2;PMS_P1;PMS_P2;Temp;Humidity;BMP_temperature;BMP_pressure;BME280_temperature;BME280_humidity;BME280_pressure;Samples;Min_cycle;Max_cycle;Signal;HPM_P1;HPM_P2
2023/02/02 00:00:59;;;;;;;;;;;7.60;1.00;;;;;;5014170;28;19913;-76
2023/02/02 00:03:41;;;;;;;;;;;7.60;1.00;;;;;;5002852;28;20030;-76
2023/02/02 00:06:07;;;;;;;;;;;7.60;1.00;;;;;;5013810;28;19916;-76
2023/02/02 00:08:34;;;;;;;;;;;7.60;1.00;;;;;;5013824;28;20004;-76
2023/02/02 00:11:18;;;;;;;;;;;7.60;1.00;;;;;;5014033;28;19910;-77
2023/02/02 00:13:47;;;;;;;;;;;7.50;1.00;;;;;;5010555;28;19959;-77
2023/02/02 00:16:44;;;;;;;;;;;7.60;1.00;;;;;;5014028;28;19909;-76
2023/02/02 00:22:17;;;;;;;;;;;7.60;1.00;;;;;;4970031;28;19917;-76
2023/02/02 00:24:59;;;;;;;;;;;7.60;1.00;;;;;;4957434;28;19910;-76
2023/02/02 00:27:25;;;;;;;;;;;7.60;1.00;;;;;;4944467;29;19911;-76
2023/02/02 00:29:59;;;;;;;;;;;7.60;1.00;;;;;;4953894;29;20282;-76
2023/02/02 00:32:29;;;;;;;;;;;7.60;1.00;;;;;;4963035;28;20028;-76
2023/02/02 00:34:55;;;;;;;;;;;7.60;1.00;;;;;;4953395;28;19915;-76
2023/02/02 00:37:35;;;;;;;;;;;7.60;1.00;;;;;;4937447;29;20283;-76
2023/02/02 00:40:01;;;;;;;;;;;7.50;1.00;;;;;;4952374;28;19960;-76
2023/02/02 00:42:29;;;;;;;;;;;7.60;1.00;;;;;;4952817;29;19954;-76
2023/02/02 00:45:17;;;;;;;;;;;7.60;1.00;;;;;;4954662;29;19977;-89
2023/02/02 00:50:54;;;;;;;;;;;7.60;1.00;;;;;;4973107;28;19972;-88
2023/02/02 00:53:53;;;;;;;;;;;7.60;1.00;;;;;;4971996;28;19914;-89
2023/02/02 00:59:22;;;;;;;;;;;7.60;1.00;;;;;;4997892;28;19964;-76
2023/02/02 01:01:48;;;;;;;;;;;7.70;1.00;;;;;;5010399;28;19918;-76
2023/02/02 01:04:13;;;;;;;;;;;7.80;1.00;;;;;;5008425;28;19913;-76
2023/02/02 01:06:39;;;;;;;;;;;7.80;1.00;;;;;;5018426;28;19910;-76
2023/02/02 01:09:05;;;;;;;;;;;7.80;1.00;;;;;;5026300;28;20297;-76
2023/02/02 01:11:31;;;;;;;;;;;7.70;1.00;;;;;;4979969;28;20004;-76
2023/02/02 01:13:56;;;;;;;;;;;7.80;1.00;;;;;;4998075;28;20341;-89
2023/02/02 01:16:23;;;;;;;;;;;7.70;1.00;;;;;;5002397;28;20254;-88
2023/02/02 01:21:52;;;;;;;;;;;7.60;1.00;;;;;;4997879;28;19917;-88
2023/02/02 01:27:24;;;;;;;;;;;7.70;1.00;;;;;;5005293;28;19920;-88
2023/02/02 01:30:06;;;;;;;;;;;7.70;1.00;;;;;;5004665;28;19910;-88
2023/02/02 01:35:34;;;;;;;;;;;7.80;1.00;;;;;;5015271;28;19915;-89
2023/02/02 01:38:29;;;;;;;;;;;7.80;1.00;;;;;;5010364;28;20010;-88
2023/02/02 01:41:28;;;;;;;;;;;7.80;1.00;;;;;;4997643;28;19924;-87
2023/02/02 01:43:58;;;;;;;;;;;7.70;1.00;;;;;;5020663;28;19918;-76
2023/02/02 01:46:41;;;;;;;;;;;7.60;1.00;;;;;;5002256;28;19917;-76
2023/02/02 01:49:19;;;;;;;;;;;7.70;1.00;;;;;;4997062;28;19914;-76
2023/02/02 01:51:53;;;;;;;;;;;7.70;1.00;;;;;;5009941;28;19988;-76
2023/02/02 01:54:27;;;;;;;;;;;7.80;1.00;;;;;;5014504;28;20389;-76
2023/02/02 01:56:56;;;;;;;;;;;7.70;1.00;;;;;;5001368;28;20036;-76
2023/02/02 01:59:22;;;;;;;;;;;7.70;1.00;;;;;;5002906;28;20388;-76
2023/02/02 02:02:11;;;;;;;;;;;7.70;1.00;;;;;;5007783;28;20787;-77
2023/02/02 02:04:42;;;;;;;;;;;7.70;1.00;;;;;;5016145;28;19910;-77
2023/02/02 02:07:08;;;;;;;;;;;7.70;1.00;;;;;;5004137;28;20407;-77
2023/02/02 02:09:34;;;;;;;;;;;7.60;1.00;;;;;;5014421;28;19913;-76
2023/02/02 02:12:14;;;;;;;;;;;7.60;1.00;;;;;;5015775;28;19925;-75
2023/02/02 02:26:53;;;;;;;;;;;7.60;1.00;;;;;;5003428;28;19956;-90
2023/02/02 02:29:37;;;;;;;;;;;7.60;1.00;;;;;;4996585;28;19910;-77
2023/02/02 02:32:06;;;;;;;;;;;7.60;1.00;;;;;;5009042;28;19964;-77
2023/02/02 02:34:48;;;;;;;;;;;7.60;1.00;;;;;;5006040;28;20296;-77
2023/02/02 02:37:35;;;;;;;;;;;7.60;1.00;;;;;;5000474;28;19992;-76
2023/02/02 02:40:11;;;;;;;;;;;7.60;1.00;;;;;;5008738;28;19924;-77
2023/02/02 02:42:44;;;;;;;;;;;7.60;1.00;;;;;;4997527;28;19910;-76
2023/02/02 02:45:12;;;;;;;;;;;7.60;1.00;;;;;;4992474;28;19918;-76
2023/02/02 02:47:38;;;;;;;;;;;7.60;1.00;;;;;;5026559;28;21659;-77
2023/02/02 02:50:23;;;;;;;;;;;7.60;1.00;;;;;;4990723;28;19918;-77
2023/02/02 02:56:08;;;;;;;;;;;7.60;1.00;;;;;;5003289;28;20032;-76
2023/02/02 02:58:48;;;;;;;;;;;7.60;1.00;;;;;;4991683;28;19914;-77
2023/02/02 03:01:29;;;;;;;;;;;7.60;1.00;;;;;;5003430;28;20320;-77
2023/02/02 03:04:29;;;;;;;;;;;7.50;1.00;;;;;;4997015;28;19963;-77
2023/02/02 03:07:29;;;;;;;;;;;7.50;1.00;;;;;;5026963;28;19960;-76
2023/02/02 03:10:01;;;;;;;;;;;7.40;1.00;;;;;;5000987;28;19914;-76
2023/02/02 03:12:27;;;;;;;;;;;7.40;1.00;;;;;;5014620;28;19910;-77
2023/02/02 03:15:11;;;;;;;;;;;7.40;1.00;;;;;;5001067;28;20009;-87
2023/02/02 03:17:37;;;;;;;;;;;7.30;1.00;;;;;;5017902;28;19937;-88
2023/02/02 03:23:18;;;;;;;;;;;7.30;1.00;;;;;;5000524;28;19917;-88
2023/02/02 03:26:11;;;;;;;;;;;7.40;1.00;;;;;;5008800;28;19910;-89
2023/02/02 03:29:05;;;;;;;;;;;7.30;1.00;;;;;;5014927;28;20321;-88
2023/02/02 03:31:35;;;;;;;;;;;7.40;1.00;;;;;;5019603;28;19953;-76
2023/02/02 03:34:23;;;;;;;;;;;7.40;1.00;;;;;;4999795;28;20022;-77
2023/02/02 03:37:23;;;;;;;;;;;7.30;1.00;;;;;;5010681;28;19936;-77
2023/02/02 03:39:53;;;;;;;;;;;7.30;1.00;;;;;;4994461;28;19925;-76
2023/02/02 03:42:24;;;;;;;;;;;7.30;1.00;;;;;;5010982;28;19914;-76
2023/02/02 03:44:49;;;;;;;;;;;7.20;1.00;;;;;;5012314;28;19914;-76
2023/02/02 03:47:47;;;;;;;;;;;7.30;1.00;;;;;;5014849;28;19936;-88
2023/02/02 03:50:17;;;;;;;;;;;7.30;1.00;;;;;;5017162;28;19913;-88
2023/02/02 03:52:47;;;;;;;;;;;7.30;1.00;;;;;;5004065;28;19928;-89
2023/02/02 03:55:47;;;;;;;;;;;7.30;1.00;;;;;;4994836;28;19917;-88
2023/02/02 03:58:20;;;;;;;;;;;7.40;1.00;;;;;;5009552;28;19917;-87
2023/02/02 04:06:52;;;;;;;;;;;7.40;1.00;;;;;;5014707;28;20048;-88
2023/02/02 04:09:18;;;;;;;;;;;7.40;1.00;;;;;;4993233;28;19953;-89
2023/02/02 04:15:00;;;;;;;;;;;7.30;1.00;;;;;;5007927;28;20281;-89
2023/02/02 04:17:25;;;;;;;;;;;7.40;1.00;;;;;;4988738;28;19910;-88
2023/02/02 04:23:29;;;;;;;;;;;7.40;1.00;;;;;;5009928;28;20281;-89
2023/02/02 04:26:00;;;;;;;;;;;7.40;1.00;;;;;;5017051;28;19957;-88
2023/02/02 04:28:59;;;;;;;;;;;7.40;1.00;;;;;;4981063;28;19953;-88
2023/02/02 04:31:35;;;;;;;;;;;7.50;1.00;;;;;;5025334;28;20030;-89
2023/02/02 04:37:35;;;;;;;;;;;7.60;1.00;;;;;;5007359;28;19956;-85
2023/02/02 04:46:25;;;;;;;;;;;7.60;1.00;;;;;;5016490;28;19920;-80
2023/02/02 04:48:51;;;;;;;;;;;7.60;1.00;;;;;;5002921;28;19910;-82
2023/02/02 04:51:29;;;;;;;;;;;7.60;1.00;;;;;;5017353;28;20281;-81
2023/02/02 04:54:06;;;;;;;;;;;7.70;1.00;;;;;;5006389;28;20029;-81
2023/02/02 04:56:35;;;;;;;;;;;7.70;1.00;;;;;;4997418;28;19996;-81
2023/02/02 04:59:06;;;;;;;;;;;7.70;1.00;;;;;;5000766;28;19910;-81
2023/02/02 05:01:36;;;;;;;;;;;7.70;1.00;;;;;;5026319;28;20003;-80
2023/02/02 05:04:06;;;;;;;;;;;7.60;1.00;;;;;;5017077;28;19914;-81
2023/02/02 05:06:36;;;;;;;;;;;7.70;1.00;;;;;;5017219;28;20055;-81
2023/02/02 05:09:13;;;;;;;;;;;7.70;1.00;;;;;;4987491;28;19959;-81
2023/02/02 05:11:54;;;;;;;;;;;7.70;1.00;;;;;;5003555;28;19909;-81
2023/02/02 05:14:19;;;;;;;;;;;7.70;1.00;;;;;;4986189;28;19910;-81
2023/02/02 05:17:11;;;;;;;;;;;7.70;1.00;;;;;;4997977;28;19976;-81
2023/02/02 05:19:53;;;;;;;;;;;7.70;1.00;;;;;;4997417;28;19921;-82
2023/02/02 05:22:29;;;;;;;;;;;7.80;1.00;;;;;;5000782;28;19910;-82
2023/02/02 05:25:00;;;;;;;;;;;7.70;1.00;;;;;;5013532;28;19946;-81
2023/02/02 05:27:35;;;;;;;;;;;7.60;1.00;;;;;;4994496;28;19913;-81
2023/02/02 05:30:35;;;;;;;;;;;7.60;1.00;;;;;;4999125;28;20028;-82
2023/02/02 05:36:29;;;;;;;;;;;7.60;1.00;;;;;;5004940;28;19917;-82
2023/02/02 05:39:00;;;;;;;;;;;7.60;1.00;;;;;;5008871;28;19914;-82
2023/02/02 05:41:25;;;;;;;;;;;7.60;1.00;;;;;;4986246;28;19949;-81
2023/02/02 05:43:54;;;;;;;;;;;7.50;1.00;;;;;;4996553;28;19964;-82
2023/02/02 05:46:54;;;;;;;;;;;7.60;1.00;;;;;;4997034;28;19914;-81
2023/02/02 05:49:29;;;;;;;;;;;7.60;1.00;;;;;;4996815;28;19910;-81
2023/02/02 05:52:06;;;;;;;;;;;7.60;1.00;;;;;;5009916;28;19951;-81
2023/02/02 05:54:47;;;;;;;;;;;7.70;1.00;;;;;;4999954;28;19929;-82
2023/02/02 05:57:17;;;;;;;;;;;7.70;1.00;;;;;;5002887;28;20392;-82
2023/02/02 05:59:59;;;;;;;;;;;7.80;1.00;;;;;;5009380;28;19925;-81
2023/02/02 06:02:59;;;;;;;;;;;7.80;1.00;;;;;;5012017;28;20488;-82
2023/02/02 06:05:36;;;;;;;;;;;7.80;1.00;;;;;;5012429;28;19910;-81
2023/02/02 06:11:15;;;;;;;;;;;7.80;1.00;;;;;;5012897;28;19920;-82
2023/02/02 06:16:43;;;;;;;;;;;7.80;1.00;;;;;;5015354;28;19917;-81
2023/02/02 06:19:09;;;;;;;;;;;7.80;1.00;;;;;;5019943;28;19921;-82
2023/02/02 06:24:53;;;;;;;;;;;7.60;1.00;;;;;;5002786;28;20280;-82
2023/02/02 06:27:48;;;;;;;;;;;7.60;1.00;;;;;;5001997;28;19920;-82
2023/02/02 06:30:35;;;;;;;;;;;7.60;1.00;;;;;;5028055;28;19914;-82
2023/02/02 06:36:29;;;;;;;;;;;7.60;1.00;;;;;;4995795;28;19917;-82
2023/02/02 06:39:01;;;;;;;;;;;7.50;1.00;;;;;;5002433;28;19915;-81
2023/02/02 06:41:28;;;;;;;;;;;7.60;1.00;;;;;;5012226;28;19921;-81
2023/02/02 06:47:12;;;;;;;;;;;7.60;1.00;;;;;;5002834;28;19916;-81
2023/02/02 06:49:37;;;;;;;;;;;7.60;1.00;;;;;;5004964;28;19921;-81
2023/02/02 06:52:23;;;;;;;;;;;7.60;1.00;;;;;;5010917;28;20308;-81
2023/02/02 06:55:06;;;;;;;;;;;7.60;1.00;;;;;;5000782;28;19932;-80
2023/02/02 06:58:06;;;;;;;;;;;7.70;1.00;;;;;;5014445;28;19910;-82
2023/02/02 07:00:32;;;;;;;;;;;7.60;1.00;;;;;;5010275;28;20304;-80
2023/02/02 07:03:06;;;;;;;;;;;7.60;1.00;;;;;;4990555;28;19913;-81
2023/02/02 07:05:53;;;;;;;;;;;7.70;1.00;;;;;;4996964;28;19914;-80
2023/02/02 07:08:30;;;;;;;;;;;7.70;1.00;;;;;;5026663;28;19909;-81
2023/02/02 07:10:58;;;;;;;;;;;7.70;1.00;;;;;;5010949;28;19920;-82
2023/02/02 07:13:30;;;;;;;;;;;7.70;1.00;;;;;;5006217;28;19913;-82
2023/02/02 07:16:01;;;;;;;;;;;7.80;1.00;;;;;;5006621;28;19956;-81
2023/02/02 07:18:27;;;;;;;;;;;7.80;1.00;;;;;;5008598;28;19939;-81
2023/02/02 07:20:56;;;;;;;;;;;7.90;1.00;;;;;;5015309;28;19925;-81
2023/02/02 07:23:36;;;;;;;;;;;8.00;1.00;;;;;;4987410;28;19917;-89
2023/02/02 07:29:23;;;;;;;;;;;8.00;1.00;;;;;;5005306;28;20419;-91
2023/02/02 07:32:00;;;;;;;;;;;8.00;1.00;;;;;;5025032;28;20276;-90
2023/02/02 07:34:47;;;;;;;;;;;8.00;1.00;;;;;;4990975;28;19910;-77
2023/02/02 07:37:13;;;;;;;;;;;8.10;1.00;;;;;;5003225;28;20357;-77
2023/02/02 07:39:48;;;;;;;;;;;8.10;1.00;;;;;;5001116;28;19918;-77
2023/02/02 07:42:13;;;;;;;;;;;8.10;1.00;;;;;;4996270;28;20028;-76
2023/02/02 07:44:39;;;;;;;;;;;8.10;1.00;;;;;;5008717;28;19938;-76
2023/02/02 07:47:05;;;;;;;;;;;8.10;1.00;;;;;;4999580;28;20073;-77
2023/02/02 07:49:30;;;;;;;;;;;8.00;1.00;;;;;;4995064;28;19910;-77
2023/02/02 07:55:00;;;;;;;;;;;8.10;1.00;;;;;;5000698;28;19972;-77
2023/02/02 07:57:36;;;;;;;;;;;8.10;1.00;;;;;;5011180;28;20013;-77
2023/02/02 08:00:06;;;;;;;;;;;8.20;1.00;;;;;;5007499;28;20012;-76
2023/02/02 08:02:54;;;;;;;;;;;8.20;1.00;;;;;;5000014;28;19920;-77
2023/02/02 08:05:41;;;;;;;;;;;8.30;1.00;;;;;;5001096;28;20000;-76
2023/02/02 08:08:12;;;;;;;;;;;8.30;1.00;;;;;;5016615;28;19914;-77
2023/02/02 08:10:37;;;;;;;;;;;8.40;1.00;;;;;;5002258;28;19914;-77
2023/02/02 08:13:12;;;;;;;;;;;8.40;1.00;;;;;;5019609;28;20268;-78
2023/02/02 08:15:42;;;;;;;;;;;8.50;1.00;;;;;;5011603;28;19913;-77
2023/02/02 08:18:42;;;;;;;;;;;8.40;1.00;;;;;;5008373;28;20345;-90
2023/02/02 08:24:11;;;;;;;;;;;8.50;1.00;;;;;;5020636;28;19959;-91
2023/02/02 08:27:06;;;;;;;;;;;8.60;1.00;;;;;;5021051;28;19910;-92
2023/02/02 08:29:37;;;;;;;;;;;8.50;1.00;;;;;;5017914;28;20029;-90
2023/02/02 08:41:29;;;;;;;;;;;8.60;1.00;;;;;;5020778;28;19964;-89
2023/02/02 08:44:18;;;;;;;;;;;8.60;1.00;;;;;;4998707;28;19917;-90
2023/02/02 08:50:06;;;;;;;;;;;8.80;1.00;;;;;;5011309;28;19956;-90
2023/02/02 08:53:06;;;;;;;;;;;8.80;1.00;;;;;;5013610;28;19913;-91
2023/02/02 08:55:54;;;;;;;;;;;8.80;1.00;;;;;;5003581;28;19925;-92
2023/02/02 08:58:41;;;;;;;;;;;8.90;1.00;;;;;;5020675;28;19909;-91
2023/02/02 09:01:25;;;;;;;;;;;8.90;1.00;;;;;;5024839;28;19918;-91
2023/02/02 09:06:49;;;;;;;;;;;9.00;1.00;;;;;;5002164;28;19914;-77
2023/02/02 09:09:18;;;;;;;;;;;9.30;1.00;;;;;;5020117;28;19933;-77
2023/02/02 09:11:48;;;;;;;;;;;9.30;1.00;;;;;;5007685;28;19961;-76
2023/02/02 09:14:13;;;;;;;;;;;9.30;1.00;;;;;;5004276;28;19920;-78
2023/02/02 09:16:42;;;;;;;;;;;9.30;1.00;;;;;;5022574;28;19910;-77
2023/02/02 09:19:12;;;;;;;;;;;9.30;1.00;;;;;;5027136;28;19910;-77
2023/02/02 09:21:48;;;;;;;;;;;9.40;1.00;;;;;;5010071;28;19917;-78
2023/02/02 09:24:18;;;;;;;;;;;9.40;1.00;;;;;;5015390;28;20356;-77
2023/02/02 09:26:48;;;;;;;;;;;9.40;1.00;;;;;;5008924;28;19921;-77
2023/02/02 09:29:15;;;;;;;;;;;9.30;1.00;;;;;;5012936;28;19909;-77
2023/02/02 09:31:42;;;;;;;;;;;9.30;1.00;;;;;;5012011;28;20000;-77
2023/02/02 09:34:13;;;;;;;;;;;9.40;1.00;;;;;;5011054;28;19921;-76
2023/02/02 09:36:39;;;;;;;;;;;9.40;1.00;;;;;;4997135;28;19936;-76
2023/02/02 09:39:05;;;;;;;;;;;9.40;1.00;;;;;;5011700;28;19910;-77
2023/02/02 09:41:50;;;;;;;;;;;9.40;1.00;;;;;;4997443;28;19929;-77
2023/02/02 09:44:15;;;;;;;;;;;9.40;1.00;;;;;;5011297;28;19925;-77
2023/02/02 09:46:50;;;;;;;;;;;9.40;1.00;;;;;;5010590;28;19909;-76
2023/02/02 09:52:21;;;;;;;;;;;9.70;1.00;;;;;;5004044;28;20058;-90
2023/02/02 10:01:01;;;;;;;;;;;9.70;1.00;;;;;;5015007;28;20408;-90
2023/02/02 10:06:46;;;;;;;;;;;9.60;1.00;;;;;;5004461;28;19955;-77
2023/02/02 10:09:24;;;;;;;;;;;9.70;1.00;;;;;;5018648;28;20340;-77
2023/02/02 10:12:06;;;;;;;;;;;9.60;1.00;;;;;;5004845;28;19910;-76
2023/02/02 10:14:34;;;;;;;;;;;9.80;1.00;;;;;;5009165;28;19909;-77
2023/02/02 10:17:04;;;;;;;;;;;10.00;1.00;;;;;;4996303;28;20250;-77
2023/02/02 10:23:06;;;;;;;;;;;10.00;1.00;;;;;;4999098;28;19987;-89
2023/02/02 10:25:38;;;;;;;;;;;10.00;1.00;;;;;;5020842;28;19914;-92
2023/02/02 10:28:11;;;;;;;;;;;10.20;1.00;;;;;;4979447;28;19932;-89
2023/02/02 10:34:12;;;;;;;;;;;10.00;1.00;;;;;;4999258;28;19964;-89
2023/02/02 10:36:46;;;;;;;;;;;9.90;1.00;;;;;;5020498;28;19916;-80
2023/02/02 10:39:15;;;;;;;;;;;10.10;1.00;;;;;;5027733;28;19910;-77
2023/02/02 10:44:53;;;;;;;;;;;10.10;1.00;;;;;;4999329;28;19989;-79
2023/02/02 10:47:32;;;;;;;;;;;10.30;1.00;;;;;;5008541;28;19914;-77
2023/02/02 10:50:18;;;;;;;;;;;10.40;1.00;;;;;;4997548;28;19913;-77
2023/02/02 10:52:58;;;;;;;;;;;10.40;1.00;;;;;;5002772;28;20012;-78
2023/02/02 10:55:40;;;;;;;;;;;10.50;1.00;;;;;;5001511;28;19918;-79
2023/02/02 10:58:17;;;;;;;;;;;10.60;1.00;;;;;;5003088;28;20017;-76
2023/02/02 11:00:56;;;;;;;;;;;10.60;1.00;;;;;;4995140;28;19933;-74
2023/02/02 11:03:48;;;;;;;;;;;10.60;1.00;;;;;;4979137;28;19913;-80
2023/02/02 11:09:36;;;;;;;;;;;10.30;1.00;;;;;;5005360;28;19916;-89
2023/02/02 11:12:04;;;;;;;;;;;10.40;1.00;;;;;;4998372;28;19917;-89
2023/02/02 11:14:36;;;;;;;;;;;10.40;1.00;;;;;;5008321;28;19975;-87
2023/02/02 11:17:30;;;;;;;;;;;10.30;1.00;;;;;;5014932;28;19957;-89
2023/02/02 11:20:30;;;;;;;;;;;10.20;1.00;;;;;;5010934;28;19917;-77
2023/02/02 11:23:00;;;;;;;;;;;10.10;1.00;;;;;;5005196;28;20364;-77
2023/02/02 11:25:36;;;;;;;;;;;10.10;1.00;;;;;;5001847;28;19910;-76
2023/02/02 11:28:30;;;;;;;;;;;10.00;1.00;;;;;;4995074;28;19913;-77
2023/02/02 11:31:24;;;;;;;;;;;10.00;1.00;;;;;;5008135;28;20399;-76
2023/02/02 11:34:06;;;;;;;;;;;10.00;1.00;;;;;;5007412;28;19913;-77
2023/02/02 11:39:34;;;;;;;;;;;9.60;1.00;;;;;;5001397;28;20011;-88
2023/02/02 11:51:18;;;;;;;;;;;9.50;1.00;;;;;;5002832;28;19924;-76
2023/02/02 11:54:00;;;;;;;;;;;9.60;1.00;;;;;;5011792;28;20384;-77
2023/02/02 11:56:31;;;;;;;;;;;9.60;1.00;;;;;;5005279;28;20373;-77
2023/02/02 11:58:58;;;;;;;;;;;9.50;1.00;;;;;;5006334;28;19913;-77
2023/02/02 12:01:31;;;;;;;;;;;9.50;1.00;;;;;;5013667;28;19928;-76
2023/02/02 12:04:02;;;;;;;;;;;9.30;1.00;;;;;;5003411;28;19917;-77
2023/02/02 12:06:37;;;;;;;;;;;9.40;1.00;;;;;;5008758;28;19910;-88
2023/02/02 12:09:20;;;;;;;;;;;9.40;1.00;;;;;;4978184;28;20276;-88
2023/02/02 12:21:13;;;;;;;;;;;9.50;1.00;;;;;;5008547;28;20342;-76
2023/02/02 12:24:06;;;;;;;;;;;9.50;1.00;;;;;;4994071;28;19914;-77
2023/02/02 12:27:06;;;;;;;;;;;9.70;1.00;;;;;;4996590;28;19993;-77
2023/02/02 12:29:31;;;;;;;;;;;9.80;1.00;;;;;;5001223;28;20377;-77
2023/02/02 12:32:16;;;;;;;;;;;9.90;1.00;;;;;;5013665;28;19914;-77
2023/02/02 12:34:54;;;;;;;;;;;10.00;1.00;;;;;;5004149;28;19910;-76
2023/02/02 12:37:23;;;;;;;;;;;9.90;1.00;;;;;;5012138;28;19915;-77
2023/02/02 12:40:18;;;;;;;;;;;10.00;1.00;;;;;;5013965;28;20332;-77
2023/02/02 12:42:49;;;;;;;;;;;9.90;1.00;;;;;;5006048;28;19913;-77
2023/02/02 12:45:30;;;;;;;;;;;9.90;1.00;;;;;;5013518;28;19964;-78
2023/02/02 12:48:14;;;;;;;;;;;9.80;1.00;;;;;;5001712;28;20363;-76
2023/02/02 12:51:12;;;;;;;;;;;9.70;1.00;;;;;;5002119;28;19910;-87
2023/02/02 12:57:14;;;;;;;;;;;9.60;1.00;;;;;;4998426;28;20017;-89
2023/02/02 13:00:00;;;;;;;;;;;9.60;1.00;;;;;;4957359;28;20461;-90
2023/02/02 13:02:44;;;;;;;;;;;9.70;1.00;;;;;;4965796;28;19936;-88
2023/02/02 13:05:30;;;;;;;;;;;9.70;1.00;;;;;;4941769;28;19914;-89
2023/02/02 13:08:03;;;;;;;;;;;9.80;1.00;;;;;;4960708;28;19919;-87
2023/02/02 13:10:48;;;;;;;;;;;9.90;1.00;;;;;;4941521;29;19915;-87
2023/02/02 13:13:19;;;;;;;;;;;9.80;1.00;;;;;;4948492;28;19922;-88
2023/02/02 13:19:03;;;;;;;;;;;10.00;1.00;;;;;;4957507;29;19961;-87
2023/02/02 13:21:29;;;;;;;;;;;10.00;1.00;;;;;;4941855;29;20461;-84
2023/02/02 13:24:01;;;;;;;;;;;10.00;1.00;;;;;;4957556;28;19911;-77
2023/02/02 13:26:38;;;;;;;;;;;9.90;1.00;;;;;;4956832;28;19970;-76
2023/02/02 13:29:18;;;;;;;;;;;10.00;1.00;;;;;;4960223;28;19976;-78
2023/02/02 13:31:54;;;;;;;;;;;10.00;1.00;;;;;;4970263;28;20443;-76
2023/02/02 13:34:41;;;;;;;;;;;10.10;1.00;;;;;;4979868;28;19961;-76
2023/02/02 13:37:13;;;;;;;;;;;10.20;1.00;;;;;;5015824;28;19910;-88
2023/02/02 13:42:45;;;;;;;;;;;10.40;1.00;;;;;;4997971;28;19976;-86
2023/02/02 13:45:36;;;;;;;;;;;10.50;1.00;;;;;;5013073;28;19913;-87
2023/02/02 13:51:42;;;;;;;;;;;10.30;1.00;;;;;;4974489;28;19917;-87
2023/02/02 13:54:12;;;;;;;;;;;10.20;1.00;;;;;;4957814;28;19921;-76
2023/02/02 13:56:59;;;;;;;;;;;10.10;1.00;;;;;;4958524;28;20357;-77
2023/02/02 13:59:48;;;;;;;;;;;10.10;1.00;;;;;;4972816;28;19956;-76
2023/02/02 14:02:21;;;;;;;;;;;10.10;1.00;;;;;;4956575;28;19957;-77
2023/02/02 14:04:52;;;;;;;;;;;10.00;1.00;;;;;;4950922;28;19970;-77
2023/02/02 14:07:24;;;;;;;;;;;9.90;1.00;;;;;;4966805;28;19921;-87
2023/02/02 14:10:18;;;;;;;;;;;9.90;1.00;;;;;;4962423;28;19957;-88
2023/02/02 14:34:38;;;;;;;;;;;10.50;1.00;;;;;;5000406;28;19917;-91
2023/02/02 14:43:43;;;;;;;;;;;10.30;1.00;;;;;;4962777;28;20424;-87
2023/02/02 14:49:13;;;;;;;;;;;10.70;1.00;;;;;;4955830;29;19917;-88
2023/02/02 14:54:41;;;;;;;;;;;10.80;1.00;;;;;;4958400;28;20345;-76
2023/02/02 14:57:33;;;;;;;;;;;11.00;1.00;;;;;;4966686;28;19914;-77
2023/02/02 15:00:24;;;;;;;;;;;11.00;1.00;;;;;;4973399;28;19914;-77
2023/02/02 15:03:26;;;;;;;;;;;11.10;1.00;;;;;;4955507;28;19918;-77
2023/02/02 15:06:00;;;;;;;;;;;11.10;1.00;;;;;;4898164;29;19943;-77
2023/02/02 15:08:27;;;;;;;;;;;11.10;1.00;;;;;;4898026;29;19915;-89
2023/02/02 15:14:24;;;;;;;;;;;10.80;1.00;;;;;;4927037;29;19999;-90
2023/02/02 15:17:20;;;;;;;;;;;10.70;1.00;;;;;;4905504;29;19972;-88
2023/02/02 15:20:00;;;;;;;;;;;10.60;1.00;;;;;;4873893;29;20288;-87
2023/02/02 15:22:29;;;;;;;;;;;10.60;1.00;;;;;;4869501;29;19979;-82
2023/02/02 15:28:23;;;;;;;;;;;10.50;1.00;;;;;;4880338;29;20000;-84
2023/02/02 15:34:23;;;;;;;;;;;10.50;1.00;;;;;;4880924;29;20003;-86
2023/02/02 15:52:43;;;;;;;;;;;9.90;1.00;;;;;;4925710;29;19922;-77
2023/02/02 15:55:19;;;;;;;;;;;9.90;1.00;;;;;;4926502;28;19923;-79
2023/02/02 15:58:18;;;;;;;;;;;9.90;1.00;;;;;;5000740;28;19918;-79
2023/02/02 16:01:02;;;;;;;;;;;9.80;1.00;;;;;;5004956;28;19918;-79
2023/02/02 16:03:51;;;;;;;;;;;9.80;1.00;;;;;;4994322;28;19913;-77
2023/02/02 16:06:24;;;;;;;;;;;9.70;1.00;;;;;;5002031;28;20027;-78
2023/02/02 16:09:04;;;;;;;;;;;9.70;1.00;;;;;;5004730;28;19963;-78
2023/02/02 16:11:42;;;;;;;;;;;9.70;1.00;;;;;;5003876;28;19941;-78
2023/02/02 16:14:16;;;;;;;;;;;9.70;1.00;;;;;;5007076;28;19920;-78
2023/02/02 16:16:48;;;;;;;;;;;9.60;1.00;;;;;;4995533;28;20404;-79
2023/02/02 16:19:14;;;;;;;;;;;9.60;1.00;;;;;;4989651;28;19914;-78
2023/02/02 16:22:00;;;;;;;;;;;9.60;1.00;;;;;;5011950;28;20375;-78
2023/02/02 16:24:45;;;;;;;;;;;9.70;1.00;;;;;;5006860;28;19960;-78
2023/02/02 16:27:36;;;;;;;;;;;9.60;1.00;;;;;;4994127;28;19914;-78
2023/02/02 16:30:22;;;;;;;;;;;9.60;1.00;;;;;;5012494;28;19910;-78
2023/02/02 16:33:20;;;;;;;;;;;9.50;1.00;;;;;;5011152;28;20348;-80
2023/02/02 16:35:46;;;;;;;;;;;9.60;1.00;;;;;;4990349;28;19926;-80
2023/02/02 16:38:13;;;;;;;;;;;9.60;1.00;;;;;;5009386;28;19940;-79
2023/02/02 16:40:48;;;;;;;;;;;9.60;1.00;;;;;;5011797;28;20396;-80
2023/02/02 16:43:19;;;;;;;;;;;9.60;1.00;;;;;;4998179;28;19936;-80
2023/02/02 16:45:49;;;;;;;;;;;9.60;1.00;;;;;;4985690;28;20433;-79
2023/02/02 16:48:24;;;;;;;;;;;9.50;1.00;;;;;;5007161;28;19914;-79
2023/02/02 16:51:12;;;;;;;;;;;9.50;1.00;;;;;;4997469;28;19914;-79
2023/02/02 16:53:59;;;;;;;;;;;9.50;1.00;;;;;;5006265;28;19965;-79
2023/02/02 16:56:36;;;;;;;;;;;9.50;1.00;;;;;;5011418;28;19918;-77
2023/02/02 16:59:20;;;;;;;;;;;9.60;1.00;;;;;;5019705;28;19923;-77
2023/02/02 17:02:19;;;;;;;;;;;9.50;1.00;;;;;;5025474;28;20488;-79
2023/02/02 17:04:56;;;;;;;;;;;9.50;1.00;;;;;;5005207;28;19910;-77
2023/02/02 17:07:24;;;;;;;;;;;9.50;1.00;;;;;;5003119;28;19909;-75
2023/02/02 17:10:20;;;;;;;;;;;9.50;1.00;;;;;;5008573;28;19918;-77
2023/02/02 17:12:54;;;;;;;;;;;9.50;1.00;;;;;;4963797;28;19910;-76
2023/02/02 17:15:36;;;;;;;;;;;9.50;1.00;;;;;;4956566;28;19914;-75
2023/02/02 17:18:08;;;;;;;;;;;9.50;1.00;;;;;;4956294;29;19916;-76
2023/02/02 17:20:42;;;;;;;;;;;9.50;1.00;;;;;;4939678;29;19914;-76
2023/02/02 17:23:15;;;;;;;;;;;9.50;1.00;;;;;;4962277;28;19990;-76
2023/02/02 17:25:42;;;;;;;;;;;9.50;1.00;;;;;;4963898;28;19920;-78
2023/02/02 17:28:12;;;;;;;;;;;9.50;1.00;;;;;;4955512;28;19917;-78
2023/02/02 17:30:43;;;;;;;;;;;9.50;1.00;;;;;;4955495;28;20014;-78
2023/02/02 17:33:18;;;;;;;;;;;9.40;1.00;;;;;;4956336;28;19950;-79
2023/02/02 17:35:50;;;;;;;;;;;9.40;1.00;;;;;;4969111;28;19919;-79
2023/02/02 17:38:19;;;;;;;;;;;9.40;1.00;;;;;;4955985;29;19958;-79
2023/02/02 17:40:48;;;;;;;;;;;9.30;1.00;;;;;;4953076;28;20005;-75
2023/02/02 17:43:18;;;;;;;;;;;9.30;1.00;;;;;;4963003;28;19921;-75
2023/02/02 17:49:00;;;;;;;;;;;9.20;1.00;;;;;;4982538;28;19928;-78
2023/02/02 17:51:30;;;;;;;;;;;9.30;1.00;;;;;;4997388;28;19917;-77
2023/02/02 17:53:59;;;;;;;;;;;9.40;1.00;;;;;;5023460;28;19910;-76
2023/02/02 17:56:25;;;;;;;;;;;9.30;1.00;;;;;;5012057;28;20280;-78
2023/02/02 17:59:06;;;;;;;;;;;9.30;1.00;;;;;;5007602;28;20392;-77
2023/02/02 18:01:37;;;;;;;;;;;9.40;1.00;;;;;;4985217;28;19918;-78
2023/02/02 18:04:12;;;;;;;;;;;9.30;1.00;;;;;;5004116;28;19960;-78
2023/02/02 18:06:42;;;;;;;;;;;9.30;1.00;;;;;;5015920;28;19910;-77
2023/02/02 18:09:18;;;;;;;;;;;9.30;1.00;;;;;;5015876;28;19996;-78
2023/02/02 18:11:48;;;;;;;;;;;9.30;1.00;;;;;;5016157;28;19910;-77
2023/02/02 18:14:30;;;;;;;;;;;9.20;1.00;;;;;;5015795;28;20440;-78
2023/02/02 18:16:56;;;;;;;;;;;9.20;1.00;;;;;;5009032;28;19910;-78
2023/02/02 18:19:24;;;;;;;;;;;9.20;1.00;;;;;;5015435;28;19920;-78
2023/02/02 18:21:50;;;;;;;;;;;9.20;1.00;;;;;;5015499;28;19920;-77
2023/02/02 18:24:30;;;;;;;;;;;9.30;1.00;;;;;;5009329;28;19913;-77
2023/02/02 18:27:12;;;;;;;;;;;9.30;1.00;;;;;;5005232;28;20365;-78
2023/02/02 18:29:38;;;;;;;;;;;9.20;1.00;;;;;;5014611;28;20384;-78
2023/02/02 18:32:04;;;;;;;;;;;9.20;1.00;;;;;;5022059;28;19910;-77
2023/02/02 18:34:36;;;;;;;;;;;9.20;1.00;;;;;;5009140;28;20387;-78
2023/02/02 18:37:24;;;;;;;;;;;9.10;1.00;;;;;;4996010;28;20285;-77
2023/02/02 18:39:54;;;;;;;;;;;9.10;1.00;;;;;;5019288;28;19917;-78
2023/02/02 18:45:23;;;;;;;;;;;9.10;1.00;;;;;;4999932;28;19940;-77
2023/02/02 18:47:54;;;;;;;;;;;9.20;1.00;;;;;;4982548;28;19921;-77
2023/02/02 18:50:42;;;;;;;;;;;9.10;1.00;;;;;;4995446;28;19930;-77
2023/02/02 18:53:14;;;;;;;;;;;9.10;1.00;;;;;;5023953;28;19909;-77
2023/02/02 18:55:40;;;;;;;;;;;9.10;1.00;;;;;;5003868;28;20040;-77
2023/02/02 18:58:09;;;;;;;;;;;9.10;1.00;;;;;;4999938;28;20321;-77
2023/02/02 19:00:35;;;;;;;;;;;9.10;1.00;;;;;;4995211;28;19922;-77
2023/02/02 19:03:00;;;;;;;;;;;9.10;1.00;;;;;;4997564;28;20028;-77
2023/02/02 19:08:14;;;;;;;;;;;9.10;1.00;;;;;;5014344;28;20340;-81
2023/02/02 19:10:42;;;;;;;;;;;9.00;1.00;;;;;;5002436;28;19941;-79
2023/02/02 19:13:30;;;;;;;;;;;9.00;1.00;;;;;;5010149;28;19952;-78
2023/02/02 19:16:32;;;;;;;;;;;9.10;1.00;;;;;;5014780;28;19910;-77
2023/02/02 19:19:32;;;;;;;;;;;9.00;1.00;;;;;;4959525;28;20279;-74
2023/02/02 19:22:03;;;;;;;;;;;9.00;1.00;;;;;;4878549;29;20292;-77
2023/02/02 19:24:36;;;;;;;;;;;9.10;1.00;;;;;;4893965;29;19919;-77
2023/02/02 19:27:22;;;;;;;;;;;9.00;1.00;;;;;;4887233;29;20399;-78